Moby Aki — IBVV — position and weather

sailwx.info

Track history (hours):
 
Tides and Currents Weather Stations Pressure Air Temp Water Temp Dewpoint Dewpoint Depression Visibility Wind Speed Wind Dir Waves Ship Positions

Moby Aki

Last reported at 2015-Jan-30 19:31 UTC. Time now 2015-Jan-30 20:09 UTC.
Position N 40°55' E 009°31'.

Length 175 m; draft 6.9 m.

Type: Passenger vessel. MMSI: 247132400.

Date/timePositionNaut miles runAvg speedWind from/ knotsBaromVisibWave heightAir tempDewpointWater temp
2015-Jan-30 19:31N 40°55' E 009°31'0 0.0
2015-Jan-30 18:31N 40°55' E 009°31'0 0.0
2015-Jan-30 17:31N 40°55' E 009°31'0 0.0
2015-Jan-30 16:27N 40°55' E 009°31'0 0.0
2015-Jan-30 15:22N 40°55' E 009°31'0 0.0
2015-Jan-30 14:25N 40°55' E 009°31'0 0.0
2015-Jan-30 13:28N 40°55' E 009°31'0 0.0
2015-Jan-30 12:31N 40°55' E 009°31'0 0.0
2015-Jan-30 11:31N 40°55' E 009°31'0 0.0
2015-Jan-30 10:29N 40°55' E 009°31'0 0.0
2015-Jan-30 09:29N 40°55' E 009°31'0 0.0
2015-Jan-30 08:29N 40°55' E 009°31'0 0.0
2015-Jan-30 07:25N 40°55' E 009°31'0 0.0
2015-Jan-30 06:29N 40°55' E 009°31'12214.5
2015-Jan-29 22:07N 42°55' E 010°03'1018.3
2015-Jan-29 21:34N 43°04' E 010°09'2322.9
2015-Jan-29 20:34N 43°27' E 010°11'8 7.5
2015-Jan-29 19:33N 43°33' E 010°18'0 0.0
2015-Jan-29 18:29N 43°33' E 010°18'0 0.0
2015-Jan-29 17:32N 43°33' E 010°18'0 0.0
2015-Jan-29 16:32N 43°33' E 010°18'0 0.0
2015-Jan-29 15:32N 43°33' E 010°18'0 0.0
2015-Jan-29 14:31N 43°33' E 010°18'0 0.0
2015-Jan-29 13:31N 43°33' E 010°18'0 0.0
2015-Jan-29 12:32N 43°33' E 010°18'0 0.0
2015-Jan-29 11:32N 43°33' E 010°18'0 0.0
2015-Jan-29 10:32N 43°33' E 010°18'0 0.0
2015-Jan-29 09:31N 43°33' E 010°18'0 0.0
2015-Jan-29 08:31N 43°33' E 010°18'0 0.0
2015-Jan-29 07:32N 43°33' E 010°18'0 0.0
2015-Jan-29 06:32N 43°33' E 010°18'6 6.3
2015-Jan-29 05:33N 43°28' E 010°13'1716.5
2015-Jan-29 04:33N 43°12' E 010°07'13817.1
2015-Jan-28 20:32N 40°56' E 009°38'5 4.9
2015-Jan-28 19:33N 40°55' E 009°31'0 0.0
2015-Jan-28 15:27N 40°55' E 009°31'0 0.0
2015-Jan-28 14:30N 40°55' E 009°31'0 0.0
2015-Jan-28 13:21N 40°55' E 009°31'0 0.0
2015-Jan-28 12:33N 40°55' E 009°31'0 0.0
2015-Jan-28 11:33N 40°55' E 009°31'0 0.0
2015-Jan-28 10:31N 40°55' E 009°31'0 0.0
2015-Jan-28 09:27N 40°55' E 009°31'0 0.0
2015-Jan-28 08:32N 40°55' E 009°31'0 0.0
2015-Jan-28 07:32N 40°55' E 009°31'0 0.0
2015-Jan-28 06:32N 40°55' E 009°31'7 7.1
2015-Jan-28 05:33N 40°58' E 009°40'12316.8
2015-Jan-27 22:14N 42°60' E 010°04'1217.1
2015-Jan-27 21:33N 43°11' E 010°07'1918.8
2015-Jan-27 20:33N 43°30' E 010°11'6 6.1
2015-Jan-27 19:32N 43°33' E 010°18'0 0.0
2015-Jan-27 18:31N 43°33' E 010°18'0 0.0
2015-Jan-27 17:31N 43°33' E 010°18'0 0.0
2015-Jan-27 16:31N 43°33' E 010°18'0 0.0
2015-Jan-27 15:31N 43°33' E 010°18'0 0.0
2015-Jan-27 14:33N 43°33' E 010°18'0 0.0
2015-Jan-27 13:33N 43°33' E 010°18'0 0.0
2015-Jan-27 12:33N 43°33' E 010°18'0 0.0
2015-Jan-27 11:33N 43°33' E 010°18'0 0.0
2015-Jan-27 10:33N 43°33' E 010°18'0 0.0
2015-Jan-27 09:33N 43°33' E 010°18'0 0.0
2015-Jan-27 08:33N 43°33' E 010°18'0 0.0
2015-Jan-27 07:32N 43°33' E 010°18'0 0.0
2015-Jan-27 06:32N 43°33' E 010°18'5 5.5
2015-Jan-27 05:33N 43°29' E 010°14'1716.6
2015-Jan-27 04:33N 43°13' E 010°08'13 0.4
2015-Jan-25 22:16N 43°00' E 010°04'1217.5
2015-Jan-25 21:34N 43°12' E 010°08'1818.5
2015-Jan-25 20:34N 43°30' E 010°12'5 4.7
2015-Jan-25 19:32N 43°33' E 010°18'0 0.0
2015-Jan-25 18:32N 43°33' E 010°18'0 0.0
2015-Jan-25 17:32N 43°33' E 010°18'0 0.0
2015-Jan-25 16:32N 43°33' E 010°18'0 0.0
2015-Jan-25 15:32N 43°33' E 010°18'0 0.0
2015-Jan-25 14:32N 43°33' E 010°18'0 0.0
2015-Jan-25 13:32N 43°33' E 010°18'0 0.0
2015-Jan-25 12:31N 43°33' E 010°18'0 0.0
2015-Jan-25 11:31N 43°33' E 010°18'0 0.0
2015-Jan-25 10:28N 43°33' E 010°18'0 0.0
2015-Jan-25 09:31N 43°33' E 010°18'0 0.0
2015-Jan-25 08:31N 43°33' E 010°18'0 0.0
2015-Jan-25 07:33N 43°33' E 010°18'0 0.0
2015-Jan-25 06:30N 43°33' E 010°18'6 5.9
2015-Jan-25 05:33N 43°29' E 010°13'1616.4
2015-Jan-25 04:33N 43°13' E 010°08'16 0.5
2015-Jan-23 22:28N 42°57' E 010°04'1617.7
2015-Jan-23 21:33N 43°13' E 010°08'1817.7
2015-Jan-23 20:33N 43°30' E 010°13'5 4.8
2015-Jan-23 19:32N 43°33' E 010°18'0 0.0
2015-Jan-23 18:32N 43°33' E 010°18'0 0.0
2015-Jan-23 17:32N 43°33' E 010°18'0 0.0
2015-Jan-23 16:31N 43°33' E 010°18'0 0.0
2015-Jan-23 15:31N 43°33' E 010°18'0 0.0
2015-Jan-23 14:31N 43°33' E 010°18'0 0.0
2015-Jan-23 13:31N 43°33' E 010°18'0 0.0
2015-Jan-23 12:31N 43°33' E 010°18'0 0.0
2015-Jan-23 11:31N 43°33' E 010°18'0 0.0
2015-Jan-23 10:31N 43°33' E 010°18'0 0.0
2015-Jan-23 09:31N 43°33' E 010°18'0 0.0
2015-Jan-23 08:31N 43°33' E 010°18'0 0.0
2015-Jan-23 07:28N 43°33' E 010°18'0 0.0
2015-Jan-23 06:33N 43°33' E 010°18'6 6.0
2015-Jan-23 05:33N 43°28' E 010°13'1717.2
2015-Jan-23 04:33N 43°12' E 010°07'13817.2
2015-Jan-22 20:33N 40°56' E 009°35'3 3.1
2015-Jan-22 19:33N 40°55' E 009°31'0 0.0
2015-Jan-22 18:33N 40°55' E 009°31'0 0.0
2015-Jan-22 17:33N 40°55' E 009°31'139 7.0
2015-Jan-21 21:33N 43°12' E 010°07'1817.8
2015-Jan-21 20:33N 43°29' E 010°12'6 5.5
2015-Jan-21 19:32N 43°33' E 010°18'0 0.0
2015-Jan-21 18:32N 43°33' E 010°18'0 0.0
2015-Jan-21 17:32N 43°33' E 010°18'0 0.0
2015-Jan-21 16:32N 43°33' E 010°18'0 0.0
2015-Jan-21 15:32N 43°33' E 010°18'0 0.0
2015-Jan-21 14:31N 43°33' E 010°18'0 0.0
2015-Jan-21 13:31N 43°33' E 010°18'0 0.0
2015-Jan-21 12:31N 43°33' E 010°18'0 0.0
2015-Jan-21 11:31N 43°33' E 010°18'0 0.0
2015-Jan-21 10:31N 43°33' E 010°18'0 0.0
2015-Jan-21 09:34N 43°33' E 010°18'0 0.0
2015-Jan-21 08:27N 43°33' E 010°18'0 0.0
2015-Jan-21 07:33N 43°33' E 010°18'0 0.0
2015-Jan-21 06:33N 43°33' E 010°18'5 5.3
2015-Jan-21 05:33N 43°29' E 010°13'1817.6
2015-Jan-21 04:33N 43°12' E 010°07'13817.2
2015-Jan-20 20:31N 40°56' E 009°36'3 3.5
2015-Jan-20 19:33N 40°55' E 009°31'  
Track history (hours):
 
Tides and Currents Weather Stations Pressure Air Temp Water Temp Dewpoint Dewpoint Depression Visibility Wind Speed Wind Dir Waves Ship Positions

Moby Aki

Last reported at 2015-Jan-30 19:31 UTC. Time now 2015-Jan-30 20:09 UTC.
Position N 40°55' E 009°31'.

Length 175 m; draft 6.9 m.

Type: Passenger vessel. MMSI: 247132400.

Date/timePositionNaut miles runAvg speedWind from/ knotsBaromVisibWave heightAir tempDewpointWater temp
2015-Jan-30 19:31N 40°55' E 009°31'0 0.0
2015-Jan-30 18:31N 40°55' E 009°31'0 0.0
2015-Jan-30 17:31N 40°55' E 009°31'0 0.0
2015-Jan-30 16:27N 40°55' E 009°31'0 0.0
2015-Jan-30 15:22N 40°55' E 009°31'0 0.0
2015-Jan-30 14:25N 40°55' E 009°31'0 0.0
2015-Jan-30 13:28N 40°55' E 009°31'0 0.0
2015-Jan-30 12:31N 40°55' E 009°31'0 0.0
2015-Jan-30 11:31N 40°55' E 009°31'0 0.0
2015-Jan-30 10:29N 40°55' E 009°31'0 0.0
2015-Jan-30 09:29N 40°55' E 009°31'0 0.0
2015-Jan-30 08:29N 40°55' E 009°31'0 0.0
2015-Jan-30 07:25N 40°55' E 009°31'0 0.0
2015-Jan-30 06:29N 40°55' E 009°31'12214.5
2015-Jan-29 22:07N 42°55' E 010°03'1018.3
2015-Jan-29 21:34N 43°04' E 010°09'2322.9
2015-Jan-29 20:34N 43°27' E 010°11'8 7.5
2015-Jan-29 19:33N 43°33' E 010°18'0 0.0
2015-Jan-29 18:29N 43°33' E 010°18'0 0.0
2015-Jan-29 17:32N 43°33' E 010°18'0 0.0
2015-Jan-29 16:32N 43°33' E 010°18'0 0.0
2015-Jan-29 15:32N 43°33' E 010°18'0 0.0
2015-Jan-29 14:31N 43°33' E 010°18'0 0.0
2015-Jan-29 13:31N 43°33' E 010°18'0 0.0
2015-Jan-29 12:32N 43°33' E 010°18'0 0.0
2015-Jan-29 11:32N 43°33' E 010°18'0 0.0
2015-Jan-29 10:32N 43°33' E 010°18'0 0.0
2015-Jan-29 09:31N 43°33' E 010°18'0 0.0
2015-Jan-29 08:31N 43°33' E 010°18'0 0.0
2015-Jan-29 07:32N 43°33' E 010°18'0 0.0
2015-Jan-29 06:32N 43°33' E 010°18'6 6.3
2015-Jan-29 05:33N 43°28' E 010°13'1716.5
2015-Jan-29 04:33N 43°12' E 010°07'13817.1
2015-Jan-28 20:32N 40°56' E 009°38'5 4.9
2015-Jan-28 19:33N 40°55' E 009°31'0 0.0
2015-Jan-28 15:27N 40°55' E 009°31'0 0.0
2015-Jan-28 14:30N 40°55' E 009°31'0 0.0
2015-Jan-28 13:21N 40°55' E 009°31'0 0.0
2015-Jan-28 12:33N 40°55' E 009°31'0 0.0
2015-Jan-28 11:33N 40°55' E 009°31'0 0.0
2015-Jan-28 10:31N 40°55' E 009°31'0 0.0
2015-Jan-28 09:27N 40°55' E 009°31'0 0.0
2015-Jan-28 08:32N 40°55' E 009°31'0 0.0
2015-Jan-28 07:32N 40°55' E 009°31'0 0.0
2015-Jan-28 06:32N 40°55' E 009°31'7 7.1
2015-Jan-28 05:33N 40°58' E 009°40'12316.8
2015-Jan-27 22:14N 42°60' E 010°04'1217.1
2015-Jan-27 21:33N 43°11' E 010°07'1918.8
2015-Jan-27 20:33N 43°30' E 010°11'6 6.1
2015-Jan-27 19:32N 43°33' E 010°18'0 0.0
2015-Jan-27 18:31N 43°33' E 010°18'0 0.0
2015-Jan-27 17:31N 43°33' E 010°18'0 0.0
2015-Jan-27 16:31N 43°33' E 010°18'0 0.0
2015-Jan-27 15:31N 43°33' E 010°18'0 0.0
2015-Jan-27 14:33N 43°33' E 010°18'0 0.0
2015-Jan-27 13:33N 43°33' E 010°18'0 0.0
2015-Jan-27 12:33N 43°33' E 010°18'0 0.0
2015-Jan-27 11:33N 43°33' E 010°18'0 0.0
2015-Jan-27 10:33N 43°33' E 010°18'0 0.0
2015-Jan-27 09:33N 43°33' E 010°18'0 0.0
2015-Jan-27 08:33N 43°33' E 010°18'0 0.0
2015-Jan-27 07:32N 43°33' E 010°18'0 0.0
2015-Jan-27 06:32N 43°33' E 010°18'5 5.5
2015-Jan-27 05:33N 43°29' E 010°14'1716.6
2015-Jan-27 04:33N 43°13' E 010°08'13 0.4
2015-Jan-25 22:16N 43°00' E 010°04'1217.5
2015-Jan-25 21:34N 43°12' E 010°08'1818.5
2015-Jan-25 20:34N 43°30' E 010°12'5 4.7
2015-Jan-25 19:32N 43°33' E 010°18'0 0.0
2015-Jan-25 18:32N 43°33' E 010°18'0 0.0
2015-Jan-25 17:32N 43°33' E 010°18'0 0.0
2015-Jan-25 16:32N 43°33' E 010°18'0 0.0
2015-Jan-25 15:32N 43°33' E 010°18'0 0.0
2015-Jan-25 14:32N 43°33' E 010°18'0 0.0
2015-Jan-25 13:32N 43°33' E 010°18'0 0.0
2015-Jan-25 12:31N 43°33' E 010°18'0 0.0
2015-Jan-25 11:31N 43°33' E 010°18'0 0.0
2015-Jan-25 10:28N 43°33' E 010°18'0 0.0
2015-Jan-25 09:31N 43°33' E 010°18'0 0.0
2015-Jan-25 08:31N 43°33' E 010°18'0 0.0
2015-Jan-25 07:33N 43°33' E 010°18'0 0.0
2015-Jan-25 06:30N 43°33' E 010°18'6 5.9
2015-Jan-25 05:33N 43°29' E 010°13'1616.4
2015-Jan-25 04:33N 43°13' E 010°08'16 0.5
2015-Jan-23 22:28N 42°57' E 010°04'1617.7
2015-Jan-23 21:33N 43°13' E 010°08'1817.7
2015-Jan-23 20:33N 43°30' E 010°13'5 4.8
2015-Jan-23 19:32N 43°33' E 010°18'0 0.0
2015-Jan-23 18:32N 43°33' E 010°18'0 0.0
2015-Jan-23 17:32N 43°33' E 010°18'0 0.0
2015-Jan-23 16:31N 43°33' E 010°18'0 0.0
2015-Jan-23 15:31N 43°33' E 010°18'0 0.0
2015-Jan-23 14:31N 43°33' E 010°18'0 0.0
2015-Jan-23 13:31N 43°33' E 010°18'0 0.0
2015-Jan-23 12:31N 43°33' E 010°18'0 0.0
2015-Jan-23 11:31N 43°33' E 010°18'0 0.0
2015-Jan-23 10:31N 43°33' E 010°18'0 0.0
2015-Jan-23 09:31N 43°33' E 010°18'0 0.0
2015-Jan-23 08:31N 43°33' E 010°18'0 0.0
2015-Jan-23 07:28N 43°33' E 010°18'0 0.0
2015-Jan-23 06:33N 43°33' E 010°18'6 6.0
2015-Jan-23 05:33N 43°28' E 010°13'1717.2
2015-Jan-23 04:33N 43°12' E 010°07'13817.2
2015-Jan-22 20:33N 40°56' E 009°35'3 3.1
2015-Jan-22 19:33N 40°55' E 009°31'0 0.0
2015-Jan-22 18:33N 40°55' E 009°31'0 0.0
2015-Jan-22 17:33N 40°55' E 009°31'139 7.0
2015-Jan-21 21:33N 43°12' E 010°07'1817.8
2015-Jan-21 20:33N 43°29' E 010°12'6 5.5
2015-Jan-21 19:32N 43°33' E 010°18'0 0.0
2015-Jan-21 18:32N 43°33' E 010°18'0 0.0
2015-Jan-21 17:32N 43°33' E 010°18'0 0.0
2015-Jan-21 16:32N 43°33' E 010°18'0 0.0
2015-Jan-21 15:32N 43°33' E 010°18'0 0.0
2015-Jan-21 14:31N 43°33' E 010°18'0 0.0
2015-Jan-21 13:31N 43°33' E 010°18'0 0.0
2015-Jan-21 12:31N 43°33' E 010°18'0 0.0
2015-Jan-21 11:31N 43°33' E 010°18'0 0.0
2015-Jan-21 10:31N 43°33' E 010°18'0 0.0
2015-Jan-21 09:34N 43°33' E 010°18'0 0.0
2015-Jan-21 08:27N 43°33' E 010°18'0 0.0
2015-Jan-21 07:33N 43°33' E 010°18'0 0.0
2015-Jan-21 06:33N 43°33' E 010°18'5 5.3
2015-Jan-21 05:33N 43°29' E 010°13'1817.6
2015-Jan-21 04:33N 43°12' E 010°07'13817.2
2015-Jan-20 20:31N 40°56' E 009°36'3 3.5
2015-Jan-20 19:33N 40°55' E 009°31'  

Dump ship's entire track history